createdAt,value
2023-01-17T00:00:12.579Z,970.18
2023-01-17T00:01:12.505Z,970.28
2023-01-17T00:02:12.513Z,970.23
2023-01-17T00:03:12.504Z,970.29
2023-01-17T00:04:12.551Z,970.35
2023-01-17T00:05:12.510Z,970.24
2023-01-17T00:06:12.563Z,970.28
2023-01-17T00:07:12.668Z,970.36
2023-01-17T00:08:12.516Z,970.4
2023-01-17T00:09:12.507Z,970.33
2023-01-17T00:10:12.523Z,970.28
2023-01-17T00:11:12.756Z,970.3
2023-01-17T00:12:12.504Z,970.36
2023-01-17T00:13:12.498Z,970.32
2023-01-17T00:14:12.580Z,970.35
2023-01-17T00:15:12.511Z,970.35
2023-01-17T00:16:12.556Z,970.33
2023-01-17T00:17:12.507Z,970.35
2023-01-17T00:18:12.697Z,970.39
2023-01-17T00:19:12.504Z,970.37
2023-01-17T00:20:12.513Z,970.41
2023-01-17T00:21:12.521Z,970.37
2023-01-17T00:22:12.677Z,970.43
2023-01-17T00:23:12.509Z,970.4
2023-01-17T00:24:12.502Z,970.5
2023-01-17T00:25:12.504Z,970.45
2023-01-17T00:26:12.510Z,970.52
2023-01-17T00:27:12.501Z,970.49
2023-01-17T00:28:12.524Z,970.54
2023-01-17T00:29:12.519Z,970.6
2023-01-17T00:30:12.523Z,970.63
2023-01-17T00:31:12.568Z,970.56
2023-01-17T00:32:12.527Z,970.65
2023-01-17T00:33:12.516Z,970.58
2023-01-17T00:34:12.505Z,970.59
2023-01-17T00:35:12.527Z,970.65
2023-01-17T00:36:12.513Z,970.65
2023-01-17T00:37:12.513Z,970.65
2023-01-17T00:38:12.506Z,970.68
2023-01-17T00:39:12.505Z,970.71
2023-01-17T00:40:12.553Z,970.69
2023-01-17T00:41:12.502Z,970.74
2023-01-17T00:42:12.554Z,970.77
2023-01-17T00:43:12.554Z,970.83
2023-01-17T00:44:12.505Z,970.82
2023-01-17T00:45:12.504Z,970.74
2023-01-17T00:46:12.558Z,970.85
2023-01-17T00:47:12.583Z,970.85
2023-01-17T00:48:12.541Z,970.87
2023-01-17T00:49:12.526Z,970.96
2023-01-17T00:50:12.532Z,970.91
2023-01-17T00:51:12.583Z,970.93
2023-01-17T00:52:12.581Z,970.89
2023-01-17T00:53:12.667Z,970.89
2023-01-17T00:54:12.554Z,970.91
2023-01-17T00:55:12.693Z,970.88
2023-01-17T00:56:12.693Z,970.95
2023-01-17T00:57:12.606Z,970.86
2023-01-17T00:58:12.567Z,970.92
2023-01-17T00:59:12.624Z,970.94
2023-01-17T01:00:12.629Z,970.96
2023-01-17T01:01:12.769Z,970.96
2023-01-17T01:02:12.830Z,970.99
2023-01-17T01:03:12.611Z,970.98
2023-01-17T01:04:12.664Z,970.96
2023-01-17T01:05:12.748Z,970.94
2023-01-17T01:06:12.824Z,970.99
2023-01-17T01:07:12.657Z,971.02
2023-01-17T01:08:12.674Z,971
2023-01-17T01:09:12.717Z,971.02
2023-01-17T01:10:12.531Z,971.09
2023-01-17T01:11:12.791Z,971.02
2023-01-17T01:12:12.889Z,971.05
2023-01-17T01:13:12.855Z,971.01
2023-01-17T01:14:12.754Z,971.04
2023-01-17T01:15:12.735Z,971.12
2023-01-17T01:16:12.911Z,971.08
2023-01-17T01:17:12.517Z,971.13
2023-01-17T01:18:12.787Z,971.09
2023-01-17T01:19:12.640Z,971.17
2023-01-17T01:20:12.786Z,971.13
2023-01-17T01:21:12.847Z,971.13
2023-01-17T01:22:12.521Z,971.09
2023-01-17T01:23:12.537Z,971.11
2023-01-17T01:24:12.809Z,971.12
2023-01-17T01:25:12.528Z,971.18
2023-01-17T01:26:12.976Z,971.16
2023-01-17T01:27:12.614Z,971.13
2023-01-17T01:28:12.927Z,971.19
2023-01-17T01:29:12.692Z,971.22
2023-01-17T01:30:12.859Z,971.21
2023-01-17T01:31:12.616Z,971.2
2023-01-17T01:32:12.521Z,971.23
2023-01-17T01:33:12.710Z,971.27
2023-01-17T01:34:12.511Z,971.28
2023-01-17T01:35:12.693Z,971.33
2023-01-17T01:36:12.567Z,971.3
2023-01-17T01:37:12.814Z,971.34
2023-01-17T01:38:12.523Z,971.36
2023-01-17T01:39:12.798Z,971.39
2023-01-17T01:40:12.502Z,971.37
2023-01-17T01:41:12.515Z,971.41
2023-01-17T01:42:12.508Z,971.41
2023-01-17T01:43:12.517Z,971.41
2023-01-17T01:44:12.704Z,971.47
2023-01-17T01:45:12.511Z,971.45
2023-01-17T01:46:12.525Z,971.46
2023-01-17T01:47:12.522Z,971.45
2023-01-17T01:48:12.514Z,971.33
2023-01-17T01:49:12.512Z,971.55
2023-01-17T01:50:12.511Z,971.54
2023-01-17T01:51:12.508Z,971.6
2023-01-17T01:52:12.515Z,971.56
2023-01-17T01:53:12.519Z,971.6
2023-01-17T01:54:12.514Z,971.53
2023-01-17T01:55:12.511Z,971.56
2023-01-17T01:56:12.513Z,971.54
2023-01-17T01:57:12.512Z,971.58
2023-01-17T01:58:12.518Z,971.57
2023-01-17T01:59:12.508Z,971.55
2023-01-17T02:00:12.508Z,971.56
2023-01-17T02:01:12.539Z,971.62
2023-01-17T02:02:12.509Z,971.58
2023-01-17T02:03:12.511Z,971.73
2023-01-17T02:04:12.550Z,971.65
2023-01-17T02:05:12.516Z,971.65
2023-01-17T02:06:12.517Z,971.7
2023-01-17T02:07:12.514Z,971.68
2023-01-17T02:08:12.518Z,971.66
2023-01-17T02:09:12.517Z,971.63
2023-01-17T02:10:12.557Z,971.79
2023-01-17T02:11:12.521Z,971.78
2023-01-17T02:12:12.509Z,971.83
2023-01-17T02:13:12.514Z,971.77
2023-01-17T02:14:12.521Z,971.81
2023-01-17T02:15:12.517Z,971.86
2023-01-17T02:16:12.515Z,971.93
2023-01-17T02:17:12.514Z,971.85
2023-01-17T02:18:12.520Z,971.92
2023-01-17T02:19:12.523Z,971.99
2023-01-17T02:20:12.506Z,971.97
2023-01-17T02:21:12.528Z,972.05
2023-01-17T02:22:12.576Z,972.07
2023-01-17T02:23:12.545Z,972.08
2023-01-17T02:24:12.520Z,972.16
2023-01-17T02:25:12.531Z,972.15
2023-01-17T02:26:12.513Z,972.22
2023-01-17T02:27:12.514Z,972.19
2023-01-17T02:28:12.515Z,972.28
2023-01-17T02:29:12.531Z,972.3
2023-01-17T02:30:12.521Z,972.29
2023-01-17T02:31:12.512Z,972.32
2023-01-17T02:32:12.519Z,972.28
2023-01-17T02:33:12.519Z,972.37
2023-01-17T02:34:12.504Z,972.32
2023-01-17T02:35:12.527Z,972.34
2023-01-17T02:36:12.730Z,972.35
2023-01-17T02:37:13.090Z,972.35
2023-01-17T02:38:13.457Z,972.38
2023-01-17T02:39:13.551Z,972.41
2023-01-17T02:40:11.998Z,972.45
2023-01-17T02:41:12.381Z,972.46
2023-01-17T02:42:12.550Z,972.49
2023-01-17T02:43:12.819Z,972.46
2023-01-17T02:44:12.094Z,972.47
2023-01-17T02:45:12.382Z,972.52
2023-01-17T02:46:12.711Z,972.5
2023-01-17T02:47:12.591Z,972.47
2023-01-17T02:48:12.856Z,972.53
2023-01-17T02:49:13.119Z,972.58
2023-01-17T02:50:13.409Z,972.54
2023-01-17T02:51:12.571Z,972.63
2023-01-17T02:52:12.567Z,972.54
2023-01-17T02:53:12.632Z,972.68
2023-01-17T02:54:12.609Z,972.65
2023-01-17T02:55:12.532Z,972.66
2023-01-17T02:56:12.554Z,972.68
2023-01-17T02:57:12.628Z,972.69
2023-01-17T02:58:12.762Z,972.68
2023-01-17T02:59:12.775Z,972.76
2023-01-17T03:00:12.675Z,972.73
2023-01-17T03:01:12.808Z,972.79
2023-01-17T03:02:12.852Z,972.78
2023-01-17T03:03:12.861Z,972.85
2023-01-17T03:04:12.774Z,972.82
2023-01-17T03:05:12.871Z,972.84
2023-01-17T03:06:12.787Z,972.83
2023-01-17T03:07:13.036Z,972.85
2023-01-17T03:08:12.916Z,972.84
2023-01-17T03:09:13.172Z,972.95
2023-01-17T03:10:12.872Z,973
2023-01-17T03:11:13.120Z,973.03
2023-01-17T03:12:13.021Z,973.09
2023-01-17T03:13:13.253Z,973.18
2023-01-17T03:14:12.872Z,973.21
2023-01-17T03:15:12.976Z,973.21
2023-01-17T03:16:15.187Z,973.25
2023-01-17T03:17:13.136Z,973.26
2023-01-17T03:18:12.974Z,973.33
2023-01-17T03:19:12.723Z,973.33
2023-01-17T03:20:13.012Z,973.27
2023-01-17T03:21:13.283Z,973.24
2023-01-17T03:22:12.980Z,973.23
2023-01-17T03:23:13.271Z,973.25
2023-01-17T03:24:12.534Z,973.26
2023-01-17T03:25:12.523Z,973.32
2023-01-17T03:26:12.505Z,973.34
2023-01-17T03:27:12.517Z,973.43
2023-01-17T03:28:12.508Z,973.39
2023-01-17T03:29:12.513Z,973.42
2023-01-17T03:30:12.552Z,973.55
2023-01-17T03:31:12.529Z,973.46
2023-01-17T03:32:12.522Z,973.46
2023-01-17T03:33:12.533Z,973.49
2023-01-17T03:34:12.533Z,973.54
2023-01-17T03:35:12.509Z,973.6
2023-01-17T03:36:12.585Z,973.55
2023-01-17T03:37:12.501Z,973.57
2023-01-17T03:38:12.530Z,973.56
2023-01-17T03:39:12.645Z,973.59
2023-01-17T03:40:12.512Z,973.6
2023-01-17T03:41:12.523Z,973.62
2023-01-17T03:42:12.528Z,973.61
2023-01-17T03:43:12.732Z,973.63
2023-01-17T03:44:12.531Z,973.73
2023-01-17T03:45:12.519Z,973.74
2023-01-17T03:46:12.598Z,973.7
2023-01-17T03:47:12.513Z,973.75
2023-01-17T03:48:12.515Z,973.79
2023-01-17T03:49:12.515Z,973.78
2023-01-17T03:50:12.736Z,973.81
2023-01-17T03:51:12.525Z,973.88
2023-01-17T03:52:12.523Z,973.85
2023-01-17T03:53:12.522Z,973.89
2023-01-17T03:54:12.523Z,973.87
2023-01-17T03:55:12.515Z,973.85
2023-01-17T03:56:12.539Z,973.88
2023-01-17T03:57:12.515Z,973.89
2023-01-17T03:58:12.510Z,973.96
2023-01-17T03:59:15.525Z,973.87
2023-01-17T04:00:12.525Z,973.93
2023-01-17T04:01:12.648Z,973.94
2023-01-17T04:02:12.706Z,973.98
2023-01-17T04:03:12.520Z,974.01
2023-01-17T04:04:12.538Z,974.01
2023-01-17T04:05:12.524Z,974.03
2023-01-17T04:06:12.509Z,974.01
2023-01-17T04:07:12.514Z,974.07
2023-01-17T04:08:12.533Z,974.07
2023-01-17T04:09:12.508Z,974.07
2023-01-17T04:10:12.523Z,974.14
2023-01-17T04:11:12.510Z,974.14
2023-01-17T04:12:12.511Z,974.14
2023-01-17T04:13:12.503Z,974.11
2023-01-17T04:14:12.514Z,974.22
2023-01-17T04:15:12.545Z,974.23
2023-01-17T04:16:12.603Z,974.19
2023-01-17T04:17:12.526Z,974.19
2023-01-17T04:18:12.619Z,974.21
2023-01-17T04:19:12.587Z,974.2
2023-01-17T04:20:12.527Z,974.25
2023-01-17T04:21:12.518Z,974.25
2023-01-17T04:22:12.517Z,974.33
2023-01-17T04:23:12.503Z,974.3
2023-01-17T04:24:12.545Z,974.39
2023-01-17T04:25:12.520Z,974.35
2023-01-17T04:26:12.557Z,974.49
2023-01-17T04:27:12.514Z,974.47
2023-01-17T04:28:12.524Z,974.48
2023-01-17T04:29:12.516Z,974.51
2023-01-17T04:30:12.575Z,974.49
2023-01-17T04:31:12.589Z,974.57
2023-01-17T04:32:12.559Z,974.54
2023-01-17T04:33:12.590Z,974.53
2023-01-17T04:34:12.724Z,974.57
2023-01-17T04:35:12.516Z,974.56
2023-01-17T04:36:12.524Z,974.52
2023-01-17T04:37:12.552Z,974.6
2023-01-17T04:38:12.512Z,974.6
2023-01-17T04:39:12.521Z,974.61
2023-01-17T04:40:12.547Z,974.66
2023-01-17T04:41:12.628Z,974.63
2023-01-17T04:42:12.535Z,974.63
2023-01-17T04:43:12.580Z,974.67
2023-01-17T04:44:12.564Z,974.69
2023-01-17T04:45:12.515Z,974.7
2023-01-17T04:46:12.596Z,974.69
2023-01-17T04:47:12.632Z,974.74
2023-01-17T04:48:12.538Z,974.72
2023-01-17T04:49:12.572Z,974.73
2023-01-17T04:50:12.538Z,974.78
2023-01-17T04:51:12.803Z,974.76
2023-01-17T04:52:12.694Z,974.76
2023-01-17T04:53:12.557Z,974.75
2023-01-17T04:54:12.647Z,974.76
2023-01-17T04:55:12.690Z,974.79
2023-01-17T04:56:12.653Z,974.83
2023-01-17T04:57:12.726Z,974.89
2023-01-17T04:58:12.577Z,974.85
2023-01-17T04:59:12.664Z,974.85
2023-01-17T05:00:13.828Z,974.86
2023-01-17T05:01:14.161Z,974.88
2023-01-17T05:02:12.847Z,974.84
2023-01-17T05:03:12.796Z,974.86
2023-01-17T05:04:12.964Z,974.88
2023-01-17T05:05:13.246Z,974.91
2023-01-17T05:06:13.444Z,974.88
2023-01-17T05:07:13.146Z,974.9
2023-01-17T05:08:13.434Z,974.95
2023-01-17T05:09:13.683Z,974.94
2023-01-17T05:10:12.508Z,974.98
2023-01-17T05:11:12.771Z,974.96
2023-01-17T05:12:13.029Z,975.01
2023-01-17T05:13:12.636Z,975.05
2023-01-17T05:14:12.906Z,975.06
2023-01-17T05:15:12.538Z,975.04
2023-01-17T05:16:12.874Z,975.05
2023-01-17T05:17:12.590Z,975.05
2023-01-17T05:18:12.541Z,975.09
2023-01-17T05:19:12.984Z,975.11
2023-01-17T05:20:12.535Z,975.13
2023-01-17T05:21:12.540Z,975.19
2023-01-17T05:22:12.517Z,975.17
2023-01-17T05:23:12.547Z,975.23
2023-01-17T05:24:12.549Z,975.21
2023-01-17T05:25:12.574Z,975.31
2023-01-17T05:26:12.505Z,975.27
2023-01-17T05:27:12.522Z,975.29
2023-01-17T05:28:12.822Z,975.32
2023-01-17T05:29:12.617Z,975.31
2023-01-17T05:30:12.521Z,975.33
2023-01-17T05:31:12.657Z,975.35
2023-01-17T05:32:12.527Z,975.31
2023-01-17T05:33:12.515Z,975.41
2023-01-17T05:34:12.508Z,975.35
2023-01-17T05:35:12.529Z,975.41
2023-01-17T05:36:12.526Z,975.38
2023-01-17T05:37:12.512Z,975.41
2023-01-17T05:38:12.522Z,975.43
2023-01-17T05:39:12.506Z,975.39
2023-01-17T05:40:12.541Z,975.41
2023-01-17T05:41:12.512Z,975.42
2023-01-17T05:42:12.519Z,975.43
2023-01-17T05:43:12.518Z,975.41
2023-01-17T05:44:12.524Z,975.43
2023-01-17T05:45:12.514Z,975.45
2023-01-17T05:46:12.547Z,975.46
2023-01-17T05:47:12.509Z,975.45
2023-01-17T05:48:12.504Z,975.46
2023-01-17T05:49:12.535Z,975.48
2023-01-17T05:50:12.513Z,975.48
2023-01-17T05:51:12.516Z,975.5
2023-01-17T05:52:12.683Z,975.5
2023-01-17T05:53:12.642Z,975.5
2023-01-17T05:54:12.563Z,975.51
2023-01-17T05:55:12.523Z,975.47
2023-01-17T05:56:12.545Z,975.51
2023-01-17T05:57:12.511Z,975.48
2023-01-17T05:58:12.517Z,975.52
2023-01-17T05:59:17.309Z,975.48
2023-01-17T06:00:12.512Z,975.52
2023-01-17T06:01:12.528Z,975.5
2023-01-17T06:02:12.514Z,975.53
2023-01-17T06:03:12.521Z,975.49
2023-01-17T06:04:12.526Z,975.57
2023-01-17T06:05:12.530Z,975.55
2023-01-17T06:06:12.525Z,975.6
2023-01-17T06:07:12.503Z,975.6
2023-01-17T06:08:12.523Z,975.62
2023-01-17T06:09:12.506Z,975.63
2023-01-17T06:10:12.513Z,975.63
2023-01-17T06:11:12.561Z,975.64
2023-01-17T06:12:12.911Z,975.65
2023-01-17T06:13:13.313Z,975.67
2023-01-17T06:14:13.475Z,975.68
2023-01-17T06:15:11.952Z,975.72
2023-01-17T06:16:12.273Z,975.71
2023-01-17T06:17:12.489Z,975.75
2023-01-17T06:18:12.769Z,975.75
2023-01-17T06:19:12.393Z,975.76
2023-01-17T06:20:12.353Z,975.72
2023-01-17T06:21:12.601Z,975.77
2023-01-17T06:22:12.881Z,975.8
2023-01-17T06:23:13.032Z,975.83
2023-01-17T06:24:13.023Z,975.82
2023-01-17T06:25:13.272Z,975.85
2023-01-17T06:26:12.531Z,975.91
2023-01-17T06:27:12.626Z,975.88
2023-01-17T06:28:12.518Z,975.92
2023-01-17T06:29:12.515Z,975.92
2023-01-17T06:30:12.537Z,975.94
2023-01-17T06:31:12.525Z,975.93
2023-01-17T06:32:12.511Z,975.99
2023-01-17T06:33:12.523Z,975.98
2023-01-17T06:34:12.513Z,975.99
2023-01-17T06:35:12.538Z,976.03
2023-01-17T06:36:12.517Z,976.04
2023-01-17T06:37:12.510Z,976.05
2023-01-17T06:38:12.529Z,976.06
2023-01-17T06:39:15.505Z,976.09
2023-01-17T06:40:12.750Z,976.11
2023-01-17T06:41:12.519Z,976.05
2023-01-17T06:42:12.588Z,976.1
2023-01-17T06:43:12.664Z,976.11
2023-01-17T06:44:12.804Z,976.07
2023-01-17T06:45:12.630Z,976.1
2023-01-17T06:46:12.688Z,976.09
2023-01-17T06:47:12.625Z,976.13
2023-01-17T06:48:12.904Z,976.09
2023-01-17T06:49:12.620Z,976.12
2023-01-17T06:50:12.757Z,976.15
2023-01-17T06:51:12.733Z,976.16
2023-01-17T06:52:13.009Z,976.15
2023-01-17T06:53:12.804Z,976.23
2023-01-17T06:54:12.868Z,976.21
2023-01-17T06:55:12.674Z,976.28
2023-01-17T06:56:13.001Z,976.24
2023-01-17T06:57:12.794Z,976.23
2023-01-17T06:58:13.012Z,976.22
2023-01-17T06:59:12.736Z,976.21
2023-01-17T07:00:12.661Z,976.21
2023-01-17T07:01:12.882Z,976.25
2023-01-17T07:02:12.848Z,976.23
2023-01-17T07:03:12.860Z,976.27
2023-01-17T07:04:12.788Z,976.32
2023-01-17T07:05:12.705Z,976.33
2023-01-17T07:06:12.855Z,976.34
2023-01-17T07:07:12.780Z,976.32
2023-01-17T07:08:12.780Z,976.36
2023-01-17T07:09:12.857Z,976.4
2023-01-17T07:10:12.780Z,976.39
2023-01-17T07:11:12.590Z,976.38
2023-01-17T07:12:12.781Z,976.42
2023-01-17T07:13:12.842Z,976.44
2023-01-17T07:14:12.885Z,976.5
2023-01-17T07:15:12.884Z,976.53
2023-01-17T07:16:12.913Z,976.53
2023-01-17T07:17:12.889Z,976.55
2023-01-17T07:18:12.536Z,976.55
2023-01-17T07:19:12.561Z,976.57
2023-01-17T07:20:12.522Z,976.59
2023-01-17T07:21:12.898Z,976.57
2023-01-17T07:22:12.511Z,976.61
2023-01-17T07:23:12.516Z,976.6
2023-01-17T07:24:12.937Z,976.57
2023-01-17T07:25:12.946Z,976.59
2023-01-17T07:26:12.536Z,976.59
2023-01-17T07:27:12.552Z,976.64
2023-01-17T07:28:12.629Z,976.66
2023-01-17T07:29:12.961Z,976.63
2023-01-17T07:30:12.645Z,976.69
2023-01-17T07:31:12.941Z,976.67
2023-01-17T07:32:12.660Z,976.72
2023-01-17T07:33:12.987Z,976.7
2023-01-17T07:34:13.080Z,976.76
2023-01-17T07:35:13.035Z,976.74
2023-01-17T07:36:13.132Z,976.79
2023-01-17T07:37:15.653Z,976.82
2023-01-17T07:38:13.308Z,976.85
2023-01-17T07:39:13.912Z,976.82
2023-01-17T07:40:12.956Z,976.87
2023-01-17T07:41:14.019Z,976.9
2023-01-17T07:42:12.531Z,976.87
2023-01-17T07:43:12.545Z,976.88
2023-01-17T07:44:12.830Z,976.84
2023-01-17T07:45:12.515Z,976.88
2023-01-17T07:46:12.538Z,976.89
2023-01-17T07:47:12.619Z,976.91
2023-01-17T07:48:12.536Z,976.94
2023-01-17T07:49:12.660Z,976.92
2023-01-17T07:50:12.722Z,976.93
2023-01-17T07:51:12.778Z,976.94
2023-01-17T07:52:12.698Z,976.94
2023-01-17T07:53:12.767Z,976.94
2023-01-17T07:54:12.533Z,976.9
2023-01-17T07:55:12.531Z,976.96
2023-01-17T07:56:12.509Z,976.98
2023-01-17T07:57:12.508Z,976.93
2023-01-17T07:58:12.514Z,976.92
2023-01-17T07:59:12.516Z,976.93
2023-01-17T08:00:12.523Z,976.92
2023-01-17T08:01:12.663Z,976.93
2023-01-17T08:02:12.506Z,976.92
2023-01-17T08:03:12.514Z,976.97
2023-01-17T08:04:12.534Z,976.99
2023-01-17T08:05:12.525Z,976.96
2023-01-17T08:06:12.507Z,976.96
2023-01-17T08:07:12.537Z,976.98
2023-01-17T08:08:12.644Z,976.96
2023-01-17T08:09:12.768Z,977.01
2023-01-17T08:10:12.820Z,977
2023-01-17T08:11:12.879Z,976.98
2023-01-17T08:12:12.512Z,976.97
2023-01-17T08:13:12.520Z,976.94
2023-01-17T08:14:12.528Z,976.97
2023-01-17T08:15:12.526Z,976.98
2023-01-17T08:16:12.542Z,976.97
2023-01-17T08:17:12.531Z,976.97
2023-01-17T08:18:12.620Z,976.98
2023-01-17T08:19:12.512Z,976.96
2023-01-17T08:20:12.535Z,976.95
2023-01-17T08:21:12.660Z,976.95
2023-01-17T08:22:12.517Z,976.91
2023-01-17T08:23:12.506Z,976.93
2023-01-17T08:24:12.571Z,976.92
2023-01-17T08:25:12.519Z,976.9
2023-01-17T08:26:12.501Z,976.9
2023-01-17T08:27:12.504Z,976.88
2023-01-17T08:28:12.505Z,976.89
2023-01-17T08:29:12.549Z,976.95
2023-01-17T08:30:12.536Z,976.92
2023-01-17T08:31:12.551Z,976.95
2023-01-17T08:32:12.517Z,976.9
2023-01-17T08:33:12.519Z,976.94
2023-01-17T08:34:12.647Z,976.92
2023-01-17T08:35:12.881Z,976.94
2023-01-17T08:36:12.550Z,976.88
2023-01-17T08:37:12.522Z,976.89
2023-01-17T08:38:12.709Z,976.92
2023-01-17T08:39:12.554Z,976.93
2023-01-17T08:40:12.634Z,976.94
2023-01-17T08:41:12.542Z,976.93
2023-01-17T08:42:12.807Z,976.87
2023-01-17T08:43:12.516Z,976.93
2023-01-17T08:44:12.772Z,976.95
2023-01-17T08:45:12.654Z,976.94
2023-01-17T08:46:12.882Z,976.88
2023-01-17T08:47:12.588Z,976.9
2023-01-17T08:48:12.861Z,976.92
2023-01-17T08:49:12.570Z,976.92
2023-01-17T08:50:12.510Z,976.93
2023-01-17T08:51:12.516Z,976.95
2023-01-17T08:52:12.513Z,976.95
2023-01-17T08:53:12.524Z,977
2023-01-17T08:54:12.522Z,977.02
2023-01-17T08:55:12.510Z,977
2023-01-17T08:56:12.509Z,976.98
2023-01-17T08:57:12.521Z,976.99
2023-01-17T08:58:12.520Z,977.03
2023-01-17T08:59:12.529Z,977.05
2023-01-17T09:00:12.543Z,977.06
2023-01-17T09:01:12.606Z,977.06
2023-01-17T09:02:12.520Z,977.06
2023-01-17T09:03:13.384Z,977.08
2023-01-17T09:04:12.538Z,977.05
2023-01-17T09:05:12.545Z,977.04
2023-01-17T09:06:12.526Z,977.03
2023-01-17T09:07:12.526Z,977.03
2023-01-17T09:08:12.512Z,977.06
2023-01-17T09:09:12.533Z,977.04
2023-01-17T09:10:12.532Z,977.01
2023-01-17T09:11:12.522Z,977.03
2023-01-17T09:12:12.509Z,977.03
2023-01-17T09:13:12.533Z,977.03
2023-01-17T09:14:12.512Z,977.03
2023-01-17T09:15:12.516Z,977.02
2023-01-17T09:16:12.536Z,977.07
2023-01-17T09:17:15.522Z,977.09
2023-01-17T09:18:12.509Z,977.1
2023-01-17T09:19:12.508Z,977.1
2023-01-17T09:20:12.519Z,977.15
2023-01-17T09:21:12.518Z,977.09
2023-01-17T09:22:12.525Z,977.11
2023-01-17T09:23:12.513Z,977.13
2023-01-17T09:24:12.507Z,977.08
2023-01-17T09:25:12.518Z,977.11
2023-01-17T09:26:12.527Z,977.06
2023-01-17T09:27:12.516Z,977.13
2023-01-17T09:28:12.522Z,977.1
2023-01-17T09:29:12.510Z,977.11
2023-01-17T09:30:12.507Z,977.1
2023-01-17T09:31:12.515Z,977.09
2023-01-17T09:32:12.681Z,977.14
2023-01-17T09:33:12.510Z,977.11
2023-01-17T09:34:12.516Z,977.1
2023-01-17T09:35:12.511Z,977.11
2023-01-17T09:36:12.512Z,977.11
2023-01-17T09:37:12.513Z,977.15
2023-01-17T09:38:12.531Z,977.12
2023-01-17T09:39:12.579Z,977.12
2023-01-17T09:40:12.653Z,977.14
2023-01-17T09:41:12.516Z,977.15
2023-01-17T09:42:12.593Z,977.14
2023-01-17T09:43:12.507Z,977.2
2023-01-17T09:44:12.518Z,977.24
2023-01-17T09:45:12.570Z,977.17
2023-01-17T09:46:12.551Z,977.17
2023-01-17T09:47:12.595Z,977.17
2023-01-17T09:48:13.668Z,977.21
2023-01-17T09:49:13.137Z,977.19
2023-01-17T09:50:12.179Z,977.2
2023-01-17T09:51:12.313Z,977.19
2023-01-17T09:52:12.597Z,977.22
2023-01-17T09:53:12.874Z,977.24
2023-01-17T09:54:12.146Z,977.28
2023-01-17T09:55:12.424Z,977.24
2023-01-17T09:56:12.719Z,977.26
2023-01-17T09:57:12.065Z,977.26
2023-01-17T09:58:12.391Z,977.26
2023-01-17T09:59:14.322Z,977.26
2023-01-17T10:00:13.020Z,977.25
2023-01-17T10:01:12.709Z,977.28
2023-01-17T10:02:12.646Z,977.28
2023-01-17T10:03:12.650Z,977.21
2023-01-17T10:04:12.600Z,977.23
2023-01-17T10:05:12.548Z,977.26
2023-01-17T10:06:12.513Z,977.28
2023-01-17T10:07:12.512Z,977.28
2023-01-17T10:08:12.509Z,977.29
2023-01-17T10:09:12.584Z,977.3
2023-01-17T10:10:12.613Z,977.31
2023-01-17T10:11:12.692Z,977.33
2023-01-17T10:12:12.732Z,977.29
2023-01-17T10:13:12.928Z,977.28
2023-01-17T10:14:12.799Z,977.34
2023-01-17T10:15:12.785Z,977.33
2023-01-17T10:16:12.720Z,977.31
2023-01-17T10:17:12.519Z,977.33
2023-01-17T10:18:29.443Z,977.3
2023-01-17T10:19:12.693Z,977.32
2023-01-17T10:20:12.531Z,977.37
2023-01-17T10:21:12.907Z,977.33
2023-01-17T10:22:12.540Z,977.28
2023-01-17T10:23:12.806Z,977.32
2023-01-17T10:24:12.586Z,977.31
2023-01-17T10:25:12.523Z,977.31
2023-01-17T10:26:12.699Z,977.28
2023-01-17T10:27:12.517Z,977.27
2023-01-17T10:28:13.118Z,977.26
2023-01-17T10:29:12.590Z,977.25
2023-01-17T10:30:12.742Z,977.27
2023-01-17T10:31:13.053Z,977.25
2023-01-17T10:32:12.851Z,977.26
2023-01-17T10:33:12.734Z,977.3
2023-01-17T10:34:12.633Z,977.28
2023-01-17T10:35:14.191Z,977.27
2023-01-17T10:36:12.517Z,977.29
2023-01-17T10:37:12.533Z,977.3
2023-01-17T10:38:12.528Z,977.28
2023-01-17T10:39:12.534Z,977.33
2023-01-17T10:40:12.510Z,977.37
2023-01-17T10:41:12.513Z,977.35
2023-01-17T10:42:12.523Z,977.35
2023-01-17T10:43:12.542Z,977.34
2023-01-17T10:44:12.589Z,977.35
2023-01-17T10:45:12.517Z,977.33
2023-01-17T10:46:12.672Z,977.32
2023-01-17T10:47:12.541Z,977.28
2023-01-17T10:48:12.593Z,977.32
2023-01-17T10:49:12.684Z,977.32
2023-01-17T10:50:12.794Z,977.32
2023-01-17T10:51:12.504Z,977.35
2023-01-17T10:52:12.950Z,977.35
2023-01-17T10:53:12.509Z,977.33
2023-01-17T10:54:12.516Z,977.37
2023-01-17T10:55:12.695Z,977.37
2023-01-17T10:56:12.809Z,977.35
2023-01-17T10:57:12.521Z,977.35
2023-01-17T10:58:12.783Z,977.33
2023-01-17T10:59:12.691Z,977.33
2023-01-17T11:00:12.923Z,977.38
2023-01-17T11:01:12.694Z,977.35
2023-01-17T11:02:12.571Z,977.35
2023-01-17T11:03:13.729Z,977.32
2023-01-17T11:04:12.807Z,977.33
2023-01-17T11:05:12.706Z,977.34
2023-01-17T11:06:12.751Z,977.35
2023-01-17T11:07:12.836Z,977.32
2023-01-17T11:08:12.913Z,977.34
2023-01-17T11:09:12.792Z,977.35
2023-01-17T11:10:13.503Z,977.32
2023-01-17T11:11:12.511Z,977.33
2023-01-17T11:12:12.768Z,977.33
2023-01-17T11:13:12.507Z,977.31
2023-01-17T11:14:12.788Z,977.33
2023-01-17T11:15:12.612Z,977.35
2023-01-17T11:16:12.780Z,977.35
2023-01-17T11:17:12.583Z,977.34
2023-01-17T11:18:12.806Z,977.33
2023-01-17T11:19:12.713Z,977.35
2023-01-17T11:20:12.511Z,977.36
2023-01-17T11:21:12.531Z,977.31
2023-01-17T11:22:12.583Z,977.31
2023-01-17T11:23:12.509Z,977.3
2023-01-17T11:24:12.535Z,977.33
2023-01-17T11:25:12.521Z,977.31
2023-01-17T11:26:12.517Z,977.3
2023-01-17T11:27:12.509Z,977.27
2023-01-17T11:28:12.521Z,977.26
2023-01-17T11:29:12.528Z,977.19
2023-01-17T11:30:12.509Z,977.19
2023-01-17T11:31:12.527Z,977.23
2023-01-17T11:32:12.509Z,977.23
2023-01-17T11:33:12.513Z,977.22
2023-01-17T11:34:12.522Z,977.25
2023-01-17T11:35:12.514Z,977.24
2023-01-17T11:36:12.524Z,977.27
2023-01-17T11:37:12.520Z,977.28
2023-01-17T11:38:12.513Z,977.31
2023-01-17T11:39:12.520Z,977.25
2023-01-17T11:40:12.512Z,977.28
2023-01-17T11:41:12.505Z,977.28
2023-01-17T11:42:12.518Z,977.28
2023-01-17T11:43:12.533Z,977.3
2023-01-17T11:44:12.513Z,977.29
2023-01-17T11:45:12.518Z,977.34
2023-01-17T11:46:12.535Z,977.34
2023-01-17T11:47:12.515Z,977.3
2023-01-17T11:48:12.546Z,977.37
2023-01-17T11:49:12.602Z,977.36
2023-01-17T11:50:12.509Z,977.35
2023-01-17T11:51:12.517Z,977.38
2023-01-17T11:52:12.538Z,977.37
2023-01-17T11:53:12.514Z,977.38
2023-01-17T11:54:12.526Z,977.39
2023-01-17T11:55:12.519Z,977.38
2023-01-17T11:56:12.521Z,977.37
2023-01-17T11:57:12.535Z,977.38
2023-01-17T11:58:12.536Z,977.33
2023-01-17T11:59:12.514Z,977.34
2023-01-17T12:00:12.512Z,977.29
2023-01-17T12:01:12.551Z,977.3
2023-01-17T12:02:12.515Z,977.27
2023-01-17T12:03:12.525Z,977.25
2023-01-17T12:04:12.529Z,977.23
2023-01-17T12:05:12.559Z,977.23
2023-01-17T12:06:12.638Z,977.25
2023-01-17T12:07:12.864Z,977.26
2023-01-17T12:08:12.658Z,977.24
2023-01-17T12:09:12.533Z,977.24
2023-01-17T12:10:12.678Z,977.23
2023-01-17T12:11:12.511Z,977.22
2023-01-17T12:12:12.715Z,977.27
2023-01-17T12:13:12.525Z,977.25
2023-01-17T12:14:12.782Z,977.28
2023-01-17T12:15:12.551Z,977.23
2023-01-17T12:16:12.756Z,977.22
2023-01-17T12:17:12.622Z,977.2
2023-01-17T12:18:12.888Z,977.22
2023-01-17T12:19:12.658Z,977.14
2023-01-17T12:20:12.533Z,977.11
2023-01-17T12:21:12.516Z,977.11
2023-01-17T12:22:12.544Z,977.04
2023-01-17T12:23:12.521Z,977.07
2023-01-17T12:24:12.516Z,977.01
2023-01-17T12:25:12.523Z,977.07
2023-01-17T12:26:12.521Z,977.03
2023-01-17T12:27:12.510Z,977.02
2023-01-17T12:28:12.515Z,977
2023-01-17T12:29:12.516Z,976.99
2023-01-17T12:30:12.529Z,976.98